createdAt,value
2019-01-29T00:02:18.352Z,94355.00
2019-01-29T00:07:47.644Z,94362.00
2019-01-29T00:13:16.988Z,94370.00
2019-01-29T00:18:48.236Z,94368.00
2019-01-29T00:24:17.513Z,94368.00
2019-01-29T00:29:48.934Z,94377.00
2019-01-29T00:35:18.303Z,94376.00
2019-01-29T00:40:48.572Z,94380.00
2019-01-29T00:46:17.835Z,94385.00
2019-01-29T00:51:47.129Z,94392.00
2019-01-29T00:57:16.403Z,94409.00
2019-01-29T01:02:45.681Z,94427.00
2019-01-29T01:08:14.984Z,94413.00
2019-01-29T01:13:46.406Z,94426.00
2019-01-29T01:19:15.677Z,94425.00
2019-01-29T01:24:44.952Z,94438.00
2019-01-29T01:30:17.539Z,94441.00
2019-01-29T01:35:46.880Z,94460.00
2019-01-29T01:41:16.593Z,94452.00
2019-01-29T01:46:46.117Z,94468.00
2019-01-29T01:52:15.373Z,94465.00
2019-01-29T01:57:44.648Z,94466.00
2019-01-29T02:03:20.288Z,94475.00
2019-01-29T02:08:49.569Z,94480.00
2019-01-29T02:14:18.851Z,94484.00
2019-01-29T02:19:49.139Z,94492.00
2019-01-29T02:25:18.402Z,94502.00
2019-01-29T02:30:47.676Z,94507.00
2019-01-29T02:36:16.966Z,94509.00
2019-01-29T02:41:46.249Z,94515.00
2019-01-29T02:47:15.511Z,94511.00
2019-01-29T02:52:46.789Z,94524.00
2019-01-29T02:58:16.073Z,94525.00
2019-01-29T03:03:45.355Z,94537.00
2019-01-29T03:09:14.634Z,94539.00
2019-01-29T03:14:43.995Z,94533.00
2019-01-29T03:20:15.573Z,94551.00
2019-01-29T03:25:45.870Z,94560.00
2019-01-29T03:31:15.161Z,94555.00
2019-01-29T03:36:44.420Z,94570.00
2019-01-29T03:42:14.781Z,94568.00
2019-01-29T03:47:44.292Z,94570.00
2019-01-29T03:53:20.749Z,94587.00
2019-01-29T03:58:50.024Z,94589.00
2019-01-29T04:04:19.293Z,94591.00
2019-01-29T04:09:51.713Z,94608.00
2019-01-29T04:15:23.277Z,94610.00
2019-01-29T04:20:52.546Z,94619.00
2019-01-29T04:26:21.844Z,94617.00
2019-01-29T04:31:51.114Z,94621.00
2019-01-29T04:37:26.330Z,94619.00
2019-01-29T04:42:58.043Z,94624.00
2019-01-29T04:48:27.312Z,94616.00
2019-01-29T04:53:57.778Z,94628.00
2019-01-29T04:59:27.161Z,94636.00
2019-01-29T05:04:56.455Z,94630.00
2019-01-29T05:10:25.873Z,94637.00
2019-01-29T05:15:55.815Z,94642.00
2019-01-29T05:21:25.293Z,94640.00
2019-01-29T05:26:54.572Z,94647.00
2019-01-29T05:32:24.936Z,94651.00
2019-01-29T05:37:55.755Z,94660.00
2019-01-29T05:43:44.504Z,94647.00
2019-01-29T05:49:14.044Z,94662.00
2019-01-29T05:54:43.984Z,94677.00
2019-01-29T06:00:29.465Z,94672.00
2019-01-29T06:05:59.007Z,94679.00
2019-01-29T06:11:28.434Z,94671.00
2019-01-29T06:16:57.913Z,94683.00
2019-01-29T06:22:27.441Z,94675.00
2019-01-29T06:27:57.008Z,94684.00
2019-01-29T06:33:26.860Z,94692.00
2019-01-29T06:38:56.429Z,94695.00
2019-01-29T06:44:26.108Z,94696.00
2019-01-29T06:49:55.585Z,94702.00
2019-01-29T06:55:26.383Z,94718.00
2019-01-29T07:00:56.070Z,94703.00
2019-01-29T07:06:25.577Z,94718.00
2019-01-29T07:12:00.621Z,94728.00
2019-01-29T07:17:30.949Z,94733.00
2019-01-29T07:23:00.489Z,94731.00
2019-01-29T07:28:30.069Z,94742.00
2019-01-29T07:33:59.724Z,94741.00
2019-01-29T07:39:29.470Z,94751.00
2019-01-29T07:44:59.030Z,94751.00
2019-01-29T07:50:28.758Z,94750.00
2019-01-29T07:55:58.294Z,94758.00
2019-01-29T08:01:27.866Z,94754.00
2019-01-29T08:06:57.502Z,94767.00
2019-01-29T08:12:27.083Z,94763.00
2019-01-29T08:17:56.670Z,94765.00
2019-01-29T08:23:25.991Z,94771.00
2019-01-29T08:28:55.742Z,94771.00
2019-01-29T08:34:25.347Z,94770.00
2019-01-29T08:39:54.942Z,94772.00
2019-01-29T08:45:24.610Z,94779.00
2019-01-29T08:50:54.340Z,94759.00
2019-01-29T08:56:24.257Z,94750.00
2019-01-29T09:01:54.306Z,94754.00
2019-01-29T09:07:23.923Z,94765.00
2019-01-29T09:12:53.568Z,94766.00
2019-01-29T09:18:23.016Z,94768.00
2019-01-29T09:23:52.380Z,94769.00
2019-01-29T09:29:21.756Z,94770.00
2019-01-29T09:34:52.160Z,94776.00
2019-01-29T09:40:23.698Z,94770.00
2019-01-29T09:45:53.475Z,94766.00
2019-01-29T09:51:24.149Z,94757.00
2019-01-29T09:56:53.672Z,94755.00
2019-01-29T10:02:23.249Z,94749.00
2019-01-29T10:07:52.908Z,94746.00
2019-01-29T10:13:22.506Z,94750.00
2019-01-29T10:18:52.174Z,94727.00
2019-01-29T10:24:21.708Z,94730.00
2019-01-29T10:29:51.095Z,94718.00
2019-01-29T10:35:24.429Z,94720.00
2019-01-29T10:40:54.049Z,94712.00
2019-01-29T10:46:23.523Z,94693.00
2019-01-29T10:51:53.073Z,94697.00
2019-01-29T10:57:23.482Z,94665.00
2019-01-29T11:02:55.584Z,94668.00
2019-01-29T11:08:25.125Z,94653.00
2019-01-29T11:13:54.674Z,94649.00
2019-01-29T11:19:24.549Z,94654.00
2019-01-29T11:24:54.133Z,94641.00
2019-01-29T11:30:32.160Z,94646.00
2019-01-29T11:36:01.622Z,94637.00
2019-01-29T11:41:31.086Z,94633.00
2019-01-29T11:47:00.504Z,94632.00
2019-01-29T11:52:29.972Z,94623.00
2019-01-29T11:57:59.544Z,94604.00
2019-01-29T12:03:29.158Z,94602.00
2019-01-29T12:08:58.664Z,94610.00
2019-01-29T12:14:28.100Z,94591.00
2019-01-29T12:19:57.893Z,94583.00
2019-01-29T12:25:27.330Z,94579.00
2019-01-29T12:30:56.839Z,94571.00
2019-01-29T12:36:26.397Z,94555.00
2019-01-29T12:41:55.957Z,94553.00
2019-01-29T12:47:25.483Z,94548.00
2019-01-29T12:52:56.639Z,94545.00
2019-01-29T12:58:26.140Z,94545.00
2019-01-29T13:03:55.649Z,94529.00
2019-01-29T13:09:25.172Z,94517.00
2019-01-29T13:14:54.506Z,94510.00
2019-01-29T13:20:24.986Z,94505.00
2019-01-29T13:25:54.500Z,94493.00
2019-01-29T13:31:23.891Z,94491.00
2019-01-29T13:36:53.430Z,94490.00
2019-01-29T13:42:22.905Z,94479.00
2019-01-29T13:47:52.392Z,94484.00
2019-01-29T13:53:21.807Z,94473.00
2019-01-29T13:58:51.333Z,94470.00
2019-01-29T14:04:20.648Z,94457.00
2019-01-29T14:09:50.346Z,94456.00
2019-01-29T14:15:29.683Z,94454.00
2019-01-29T14:20:59.473Z,94455.00
2019-01-29T14:26:28.923Z,94443.00
2019-01-29T14:31:58.406Z,94451.00
2019-01-29T14:37:27.773Z,94447.00
2019-01-29T14:42:57.239Z,94440.00
2019-01-29T14:48:26.747Z,94437.00
2019-01-29T14:53:56.351Z,94425.00
2019-01-29T14:59:25.879Z,94390.00
2019-01-29T15:04:55.313Z,94386.00
2019-01-29T15:10:28.317Z,94380.00
2019-01-29T15:16:01.931Z,94384.00
2019-01-29T15:21:37.797Z,94378.00
2019-01-29T15:27:05.711Z,94383.00
2019-01-29T15:32:33.641Z,94372.00
2019-01-29T15:38:03.042Z,94377.00
2019-01-29T15:43:32.324Z,94386.00
2019-01-29T15:49:04.062Z,94382.00
2019-01-29T15:54:33.355Z,94367.00
2019-01-29T16:00:03.268Z,94369.00
2019-01-29T16:05:40.741Z,94366.00
2019-01-29T16:11:10.128Z,94349.00
2019-01-29T16:16:39.601Z,94338.00
2019-01-29T16:22:08.948Z,94323.00
2019-01-29T16:27:38.549Z,94323.00
2019-01-29T16:33:08.317Z,94312.00
2019-01-29T16:38:37.720Z,94316.00
2019-01-29T16:44:07.140Z,94308.00
2019-01-29T16:49:36.458Z,94302.00
2019-01-29T16:55:10.702Z,94300.00
2019-01-29T17:00:43.018Z,94299.00
2019-01-29T17:06:12.693Z,94293.00
2019-01-29T17:11:42.009Z,94275.00
2019-01-29T17:17:14.099Z,94278.00
2019-01-29T17:22:43.762Z,94258.00
2019-01-29T17:28:13.415Z,94247.00
2019-01-29T17:33:44.799Z,94248.00
2019-01-29T17:39:14.284Z,94245.00
2019-01-29T17:44:55.995Z,94241.00
2019-01-29T17:50:29.825Z,94230.00
2019-01-29T17:55:59.457Z,94226.00
2019-01-29T18:01:29.000Z,94231.00
2019-01-29T18:06:58.479Z,94211.00
2019-01-29T18:12:28.128Z,94211.00
2019-01-29T18:17:58.766Z,94207.00
2019-01-29T18:23:29.099Z,94191.00
2019-01-29T18:28:58.479Z,94194.00
2019-01-29T18:34:28.051Z,94182.00
2019-01-29T18:39:57.598Z,94182.00
2019-01-29T18:45:48.425Z,94171.00
2019-01-29T18:51:20.478Z,94157.00
2019-01-29T18:56:49.280Z,94154.00
2019-01-29T19:02:18.568Z,94137.00
2019-01-29T19:07:47.959Z,94127.00
2019-01-29T19:13:17.243Z,94120.00
2019-01-29T19:18:46.507Z,94108.00
2019-01-29T19:24:15.803Z,94100.00
2019-01-29T19:29:45.075Z,94079.00
2019-01-29T19:35:14.430Z,94081.00
2019-01-29T19:40:43.767Z,94079.00
2019-01-29T19:46:13.048Z,94072.00
2019-01-29T19:51:42.410Z,94056.00
2019-01-29T19:57:11.725Z,94054.00
2019-01-29T20:02:41.089Z,94039.00
2019-01-29T20:08:10.472Z,94035.00
2019-01-29T20:13:39.825Z,94018.00
2019-01-29T20:19:09.093Z,94015.00
2019-01-29T20:24:38.374Z,94006.00
2019-01-29T20:30:21.694Z,93997.00
2019-01-29T20:35:51.073Z,93996.00
2019-01-29T20:41:20.438Z,93992.00
2019-01-29T20:46:49.796Z,93985.00
2019-01-29T20:52:19.389Z,93964.00
2019-01-29T20:57:48.981Z,93955.00
2019-01-29T21:03:20.207Z,93957.00
2019-01-29T21:08:49.554Z,93944.00
2019-01-29T21:14:18.844Z,93925.00
2019-01-29T21:19:48.149Z,93910.00
2019-01-29T21:25:17.525Z,93915.00
2019-01-29T21:30:46.949Z,93910.00
2019-01-29T21:36:16.246Z,93886.00
2019-01-29T21:41:45.529Z,93879.00
2019-01-29T21:47:14.811Z,93872.00
2019-01-29T21:52:44.169Z,93862.00
2019-01-29T21:58:16.391Z,93851.00
2019-01-29T22:03:45.703Z,93855.00
2019-01-29T22:09:15.511Z,93845.00
2019-01-29T22:14:44.778Z,93834.00
2019-01-29T22:20:20.477Z,93829.00
2019-01-29T22:25:49.979Z,93811.00
2019-01-29T22:31:19.346Z,93808.00
2019-01-29T22:36:48.778Z,93801.00
2019-01-29T22:42:18.082Z,93805.00
2019-01-29T22:47:47.626Z,93798.00
2019-01-29T22:53:17.952Z,93782.00
2019-01-29T22:58:47.264Z,93766.00
2019-01-29T23:04:16.607Z,93764.00
2019-01-29T23:09:46.851Z,93744.00
2019-01-29T23:15:20.071Z,93733.00
2019-01-29T23:20:49.362Z,93724.00
2019-01-29T23:26:18.710Z,93712.00
2019-01-29T23:31:47.928Z,93721.00
2019-01-29T23:37:17.289Z,93709.00
2019-01-29T23:42:46.538Z,93708.00
2019-01-29T23:48:16.082Z,93694.00
2019-01-29T23:53:45.391Z,93686.00
2019-01-29T23:59:14.665Z,93681.00
